createdAt,value
2018-12-03T00:01:26.913Z,9.30
2018-12-03T00:03:57.997Z,9.30
2018-12-03T00:06:27.110Z,9.30
2018-12-03T00:08:55.662Z,9.30
2018-12-03T00:11:24.040Z,9.30
2018-12-03T00:13:52.115Z,9.30
2018-12-03T00:16:20.402Z,9.30
2018-12-03T00:18:48.759Z,9.30
2018-12-03T00:21:17.475Z,9.30
2018-12-03T00:23:45.737Z,9.30
2018-12-03T00:26:13.785Z,9.40
2018-12-03T00:28:42.174Z,9.40
2018-12-03T00:31:10.570Z,9.40
2018-12-03T00:33:38.845Z,9.40
2018-12-03T00:36:06.883Z,9.50
2018-12-03T00:38:35.295Z,9.50
2018-12-03T00:41:03.532Z,9.50
2018-12-03T00:43:31.932Z,9.40
2018-12-03T00:45:59.984Z,9.40
2018-12-03T00:48:28.941Z,9.50
2018-12-03T00:50:57.143Z,9.50
2018-12-03T00:53:25.222Z,9.60
2018-12-03T00:55:53.638Z,9.60
2018-12-03T00:58:21.774Z,9.60
2018-12-03T01:00:49.877Z,9.60
2018-12-03T01:03:18.030Z,9.60
2018-12-03T01:05:46.352Z,9.60
2018-12-03T01:08:14.769Z,9.60
2018-12-03T01:10:43.090Z,9.60
2018-12-03T01:13:11.329Z,9.60
2018-12-03T01:15:39.643Z,9.60
2018-12-03T01:18:07.873Z,9.60
2018-12-03T01:20:36.171Z,9.50
2018-12-03T01:23:04.718Z,9.60
2018-12-03T01:25:32.919Z,9.50
2018-12-03T01:28:01.311Z,9.50
2018-12-03T01:30:29.667Z,9.60
2018-12-03T01:32:57.959Z,9.60
2018-12-03T01:35:26.211Z,9.60
2018-12-03T01:37:54.506Z,9.60
2018-12-03T01:40:22.646Z,9.70
2018-12-03T01:42:50.951Z,9.70
2018-12-03T01:45:18.848Z,9.70
2018-12-03T01:47:47.540Z,9.80
2018-12-03T01:50:15.647Z,9.70
2018-12-03T01:52:43.751Z,9.70
2018-12-03T01:55:12.205Z,9.70
2018-12-03T01:57:40.499Z,9.80
2018-12-03T02:00:15.834Z,9.80
2018-12-03T02:02:44.015Z,9.80
2018-12-03T02:05:12.499Z,9.90
2018-12-03T02:07:40.767Z,10.00
2018-12-03T02:10:10.581Z,10.00
2018-12-03T02:12:39.038Z,9.90
2018-12-03T02:15:09.084Z,9.90
2018-12-03T02:17:37.349Z,9.90
2018-12-03T02:20:08.308Z,9.90
2018-12-03T02:22:36.427Z,9.90
2018-12-03T02:25:05.262Z,10.00
2018-12-03T02:27:33.293Z,10.00
2018-12-03T02:30:01.410Z,10.00
2018-12-03T02:32:29.647Z,10.00
2018-12-03T02:34:57.855Z,10.00
2018-12-03T02:37:25.897Z,10.00
2018-12-03T02:39:55.026Z,10.00
2018-12-03T02:42:23.200Z,10.00
2018-12-03T02:44:51.385Z,9.90
2018-12-03T02:47:20.267Z,9.90
2018-12-03T02:49:48.478Z,9.90
2018-12-03T02:52:17.033Z,9.90
2018-12-03T02:54:45.359Z,9.90
2018-12-03T02:57:13.455Z,9.90
2018-12-03T02:59:41.506Z,9.90
2018-12-03T03:02:09.737Z,9.80
2018-12-03T03:04:37.846Z,9.80
2018-12-03T03:07:06.161Z,9.80
2018-12-03T03:09:34.309Z,9.80
2018-12-03T03:12:02.382Z,9.80
2018-12-03T03:14:30.459Z,9.90
2018-12-03T03:16:58.647Z,9.90
2018-12-03T03:19:27.430Z,9.80
2018-12-03T03:21:55.592Z,9.80
2018-12-03T03:24:23.691Z,9.70
2018-12-03T03:26:52.411Z,9.70
2018-12-03T03:29:20.552Z,9.60
2018-12-03T03:31:48.725Z,9.50
2018-12-03T03:34:16.997Z,9.40
2018-12-03T03:36:45.038Z,9.40
2018-12-03T03:39:13.134Z,9.40
2018-12-03T03:41:41.288Z,9.30
2018-12-03T03:44:09.574Z,9.30
2018-12-03T03:46:37.613Z,9.30
2018-12-03T03:49:06.401Z,9.20
2018-12-03T03:51:34.609Z,9.30
2018-12-03T03:54:02.757Z,9.30
2018-12-03T03:56:30.946Z,9.30
2018-12-03T03:58:59.002Z,9.20
2018-12-03T04:01:27.210Z,9.30
2018-12-03T04:03:55.247Z,9.40
2018-12-03T04:06:23.452Z,9.40
2018-12-03T04:08:51.712Z,9.40
2018-12-03T04:11:19.797Z,9.50
2018-12-03T04:13:47.963Z,9.50
2018-12-03T04:16:16.976Z,9.50
2018-12-03T04:18:45.123Z,9.50
2018-12-03T04:21:13.187Z,9.50
2018-12-03T04:23:41.248Z,9.50
2018-12-03T04:26:09.331Z,9.50
2018-12-03T04:28:37.615Z,9.50
2018-12-03T04:31:05.671Z,9.50
2018-12-03T04:33:33.754Z,9.60
2018-12-03T04:36:01.922Z,9.60
2018-12-03T04:38:30.133Z,9.60
2018-12-03T04:40:58.247Z,9.60
2018-12-03T04:43:26.339Z,9.70
2018-12-03T04:45:54.604Z,9.60
2018-12-03T04:48:22.699Z,9.70
2018-12-03T04:50:50.831Z,9.60
2018-12-03T04:53:19.031Z,9.60
2018-12-03T04:55:47.299Z,9.60
2018-12-03T04:58:15.433Z,9.60
2018-12-03T05:00:43.642Z,9.60
2018-12-03T05:03:11.831Z,9.60
2018-12-03T05:05:40.138Z,9.50
2018-12-03T05:08:08.369Z,9.50
2018-12-03T05:10:37.290Z,9.60
2018-12-03T05:13:05.857Z,9.60
2018-12-03T05:15:34.028Z,9.60
2018-12-03T05:18:02.374Z,9.70
2018-12-03T05:20:30.592Z,9.70
2018-12-03T05:22:58.730Z,9.70
2018-12-03T05:25:26.927Z,9.80
2018-12-03T05:27:55.948Z,9.80
2018-12-03T05:30:26.230Z,9.80
2018-12-03T05:32:54.301Z,9.80
2018-12-03T05:35:24.841Z,9.80
2018-12-03T05:37:53.480Z,9.90
2018-12-03T05:40:23.643Z,10.00
2018-12-03T05:42:52.044Z,10.00
2018-12-03T05:45:20.042Z,10.10
2018-12-03T05:47:48.276Z,10.10
2018-12-03T05:50:16.510Z,10.10
2018-12-03T05:52:46.381Z,10.10
2018-12-03T05:55:14.713Z,10.00
2018-12-03T05:57:43.323Z,10.00
2018-12-03T06:00:15.671Z,10.00
2018-12-03T06:02:44.058Z,10.10
2018-12-03T06:05:13.551Z,10.00
2018-12-03T06:07:43.039Z,10.00
2018-12-03T06:10:16.299Z,9.90
2018-12-03T06:12:44.659Z,9.90
2018-12-03T06:15:13.926Z,9.90
2018-12-03T06:17:42.961Z,9.90
2018-12-03T06:20:13.370Z,9.90
2018-12-03T06:22:41.793Z,9.90
2018-12-03T06:25:12.173Z,9.90
2018-12-03T06:27:40.554Z,10.00
2018-12-03T06:30:13.462Z,10.10
2018-12-03T06:32:41.610Z,10.10
2018-12-03T06:35:11.006Z,10.10
2018-12-03T06:37:39.255Z,10.00
2018-12-03T06:40:17.069Z,10.00
2018-12-03T06:42:45.406Z,10.00
2018-12-03T06:45:16.070Z,10.10
2018-12-03T06:48:17.540Z,10.10
2018-12-03T06:50:45.974Z,10.20
2018-12-03T06:53:15.034Z,10.20
2018-12-03T06:55:43.193Z,10.30
2018-12-03T06:58:11.226Z,10.20
2018-12-03T07:00:39.326Z,10.20
2018-12-03T07:03:07.480Z,10.20
2018-12-03T07:05:35.782Z,10.20
2018-12-03T07:08:05.062Z,10.10
2018-12-03T07:10:33.131Z,10.10
2018-12-03T07:13:03.086Z,10.10
2018-12-03T07:15:33.878Z,10.00
2018-12-03T07:18:02.974Z,10.00
2018-12-03T07:20:31.131Z,9.90
2018-12-03T07:22:59.504Z,9.80
2018-12-03T07:25:27.707Z,9.80
2018-12-03T07:27:56.415Z,9.90
2018-12-03T07:30:25.536Z,9.90
2018-12-03T07:32:53.985Z,10.00
2018-12-03T07:35:23.064Z,10.10
2018-12-03T07:37:52.475Z,10.20
2018-12-03T07:40:20.707Z,10.20
2018-12-03T07:42:48.818Z,10.30
2018-12-03T07:45:19.800Z,10.30
2018-12-03T07:47:48.187Z,10.40
2018-12-03T07:50:17.399Z,10.50
2018-12-03T07:52:46.560Z,10.50
2018-12-03T07:55:18.587Z,10.60
2018-12-03T07:57:50.230Z,10.60
2018-12-03T08:00:21.130Z,10.70
2018-12-03T08:02:49.482Z,10.80
2018-12-03T08:05:18.873Z,10.90
2018-12-03T08:07:47.181Z,10.90
2018-12-03T08:10:16.479Z,11.00
2018-12-03T08:12:45.338Z,11.00
2018-12-03T08:15:14.816Z,11.00
2018-12-03T08:17:44.467Z,11.00
2018-12-03T08:20:21.743Z,11.10
2018-12-03T08:22:52.017Z,11.10
2018-12-03T08:25:20.946Z,11.10
2018-12-03T08:27:49.158Z,11.20
2018-12-03T08:30:17.374Z,11.20
2018-12-03T08:32:45.730Z,11.10
2018-12-03T08:35:15.379Z,11.10
2018-12-03T08:37:43.588Z,11.20
2018-12-03T08:40:14.186Z,11.30
2018-12-03T08:42:45.815Z,11.40
2018-12-03T08:45:14.244Z,11.50
2018-12-03T08:47:42.427Z,11.60
2018-12-03T08:50:27.136Z,11.60
2018-12-03T08:52:56.326Z,11.60
2018-12-03T08:55:24.706Z,11.60
2018-12-03T08:57:53.046Z,11.60
2018-12-03T09:00:23.624Z,11.60
2018-12-03T09:02:56.875Z,11.70
2018-12-03T09:05:26.355Z,11.70
2018-12-03T09:07:54.539Z,11.80
2018-12-03T09:10:22.895Z,11.70
2018-12-03T09:12:51.295Z,11.80
2018-12-03T09:15:19.686Z,11.90
2018-12-03T09:17:48.393Z,11.80
2018-12-03T09:20:16.631Z,11.70
2018-12-03T09:22:44.877Z,11.60
2018-12-03T09:25:21.282Z,11.60
2018-12-03T09:27:49.433Z,11.70
2018-12-03T09:30:17.743Z,11.70
2018-12-03T09:32:45.979Z,11.60
2018-12-03T09:35:14.395Z,11.70
2018-12-03T09:37:42.432Z,11.90
2018-12-03T09:40:16.956Z,12.10
2018-12-03T09:42:45.375Z,12.20
2018-12-03T09:45:16.414Z,12.30
2018-12-03T09:47:45.006Z,12.50
2018-12-03T09:50:21.095Z,12.60
2018-12-03T09:52:49.594Z,12.60
2018-12-03T09:55:20.345Z,12.60
2018-12-03T09:58:02.057Z,12.60
2018-12-03T10:00:30.505Z,12.50
2018-12-03T10:03:01.049Z,12.50
2018-12-03T10:05:32.573Z,12.60
2018-12-03T10:08:00.898Z,12.70
2018-12-03T10:10:29.271Z,12.80
2018-12-03T10:12:58.632Z,12.80
2018-12-03T10:15:27.706Z,12.70
2018-12-03T10:17:56.971Z,12.90
2018-12-03T10:20:25.211Z,13.10
2018-12-03T10:22:53.399Z,13.20
2018-12-03T10:25:21.585Z,13.30
2018-12-03T10:27:49.871Z,13.30
2018-12-03T10:30:19.091Z,13.30
2018-12-03T10:32:48.571Z,13.10
2018-12-03T10:35:17.045Z,12.90
2018-12-03T10:37:45.182Z,12.90
2018-12-03T10:40:19.654Z,13.10
2018-12-03T10:42:48.719Z,13.40
2018-12-03T10:45:26.072Z,13.30
2018-12-03T10:47:54.898Z,13.30
2018-12-03T10:50:23.314Z,13.30
2018-12-03T10:52:51.856Z,13.30
2018-12-03T10:55:20.259Z,13.50
2018-12-03T10:57:48.594Z,13.60
2018-12-03T11:00:23.798Z,13.80
2018-12-03T11:02:58.698Z,13.70
2018-12-03T11:06:37.590Z,13.60
2018-12-03T11:09:07.563Z,13.90
2018-12-03T11:11:36.005Z,14.10
2018-12-03T11:14:06.533Z,14.10
2018-12-03T11:16:36.602Z,13.90
2018-12-03T11:19:05.801Z,13.70
2018-12-03T11:21:33.336Z,13.60
2018-12-03T11:24:01.185Z,13.40
2018-12-03T11:26:28.939Z,13.20
2018-12-03T11:28:56.595Z,13.10
2018-12-03T11:31:25.156Z,13.30
2018-12-03T11:33:52.848Z,13.70
2018-12-03T11:36:22.325Z,13.80
2018-12-03T11:39:54.026Z,13.80
2018-12-03T11:42:21.885Z,13.70
2018-12-03T11:44:49.219Z,13.80
2018-12-03T11:47:16.750Z,13.90
2018-12-03T11:49:44.135Z,14.00
2018-12-03T11:52:11.462Z,14.00
2018-12-03T11:54:38.846Z,13.90
2018-12-03T11:57:06.785Z,13.90
2018-12-03T11:59:34.265Z,14.00
2018-12-03T12:02:02.188Z,14.00
2018-12-03T12:04:30.222Z,14.00
2018-12-03T12:06:58.078Z,14.00
2018-12-03T12:09:25.610Z,14.00
2018-12-03T12:11:53.797Z,14.10
2018-12-03T12:14:22.977Z,14.00
2018-12-03T12:16:50.561Z,13.90
2018-12-03T12:19:18.640Z,13.80
2018-12-03T12:21:46.645Z,13.90
2018-12-03T12:24:14.033Z,13.90
2018-12-03T12:26:41.504Z,13.90
2018-12-03T12:29:09.762Z,13.90
2018-12-03T12:31:37.151Z,13.90
2018-12-03T12:34:05.488Z,14.10
2018-12-03T12:36:32.977Z,14.20
2018-12-03T12:39:00.438Z,14.20
2018-12-03T12:41:27.802Z,14.20
2018-12-03T12:43:55.141Z,14.10
2018-12-03T12:46:23.825Z,14.00
2018-12-03T12:48:51.813Z,14.00
2018-12-03T12:51:19.148Z,14.00
2018-12-03T12:53:46.566Z,14.00
2018-12-03T12:56:14.591Z,14.00
2018-12-03T12:58:41.979Z,14.00
2018-12-03T13:01:09.480Z,14.00
2018-12-03T13:03:36.944Z,14.00
2018-12-03T13:06:04.600Z,13.90
2018-12-03T13:08:32.175Z,13.80
2018-12-03T13:10:59.846Z,13.80
2018-12-03T13:13:27.563Z,13.80
2018-12-03T13:15:55.169Z,13.80
2018-12-03T13:18:22.485Z,13.70
2018-12-03T13:20:50.201Z,13.70
2018-12-03T13:23:17.821Z,13.60
2018-12-03T13:25:45.492Z,13.50
2018-12-03T13:28:12.813Z,13.50
2018-12-03T13:30:40.389Z,13.50
2018-12-03T13:33:07.864Z,13.50
2018-12-03T13:35:35.410Z,13.40
2018-12-03T13:38:02.966Z,13.40
2018-12-03T13:40:30.569Z,13.30
2018-12-03T13:42:57.974Z,13.30
2018-12-03T13:45:25.853Z,13.30
2018-12-03T13:47:54.439Z,13.20
2018-12-03T13:50:21.811Z,13.20
2018-12-03T13:52:49.322Z,13.10
2018-12-03T13:55:18.889Z,13.10
2018-12-03T13:57:46.325Z,13.10
2018-12-03T14:00:19.004Z,13.20
2018-12-03T14:02:49.626Z,13.10
2018-12-03T14:05:17.149Z,13.10
2018-12-03T14:07:47.409Z,13.00
2018-12-03T14:10:36.976Z,13.10
2018-12-03T14:13:07.817Z,13.00
2018-12-03T14:15:44.474Z,13.00
2018-12-03T14:18:14.802Z,13.00
2018-12-03T14:20:44.139Z,12.90
2018-12-03T14:23:12.577Z,12.90
2018-12-03T14:25:40.018Z,12.80
2018-12-03T14:28:07.404Z,12.80
2018-12-03T14:30:34.726Z,12.90
2018-12-03T14:33:03.044Z,12.80
2018-12-03T14:35:30.363Z,12.70
2018-12-03T14:37:57.772Z,12.60
2018-12-03T14:40:25.158Z,12.70
2018-12-03T14:42:52.649Z,12.70
2018-12-03T14:45:20.335Z,12.60
2018-12-03T14:47:48.055Z,12.60
2018-12-03T14:50:15.554Z,12.60
2018-12-03T14:52:43.778Z,12.60
2018-12-03T14:55:11.365Z,12.60
2018-12-03T14:57:38.817Z,12.60
2018-12-03T15:00:08.905Z,12.60
2018-12-03T15:02:36.295Z,12.60
2018-12-03T15:05:04.186Z,12.40
2018-12-03T15:07:31.695Z,12.40
2018-12-03T15:09:59.329Z,12.20
2018-12-03T15:12:26.713Z,12.30
2018-12-03T15:14:54.425Z,12.20
2018-12-03T15:17:21.928Z,12.20
2018-12-03T15:19:49.426Z,12.10
2018-12-03T15:22:17.129Z,12.00
2018-12-03T15:24:45.196Z,12.00
2018-12-03T15:27:12.701Z,11.90
2018-12-03T15:29:40.173Z,11.80
2018-12-03T15:32:07.537Z,11.70
2018-12-03T15:34:35.072Z,11.60
2018-12-03T15:37:02.633Z,11.50
2018-12-03T15:39:29.961Z,11.40
2018-12-03T15:41:58.060Z,11.30
2018-12-03T15:44:25.490Z,11.30
2018-12-03T15:46:53.182Z,11.40
2018-12-03T15:49:20.613Z,11.40
2018-12-03T15:51:48.645Z,11.40
2018-12-03T15:54:16.619Z,11.40
2018-12-03T15:56:44.631Z,11.40
2018-12-03T15:59:11.953Z,11.60
2018-12-03T16:01:39.341Z,11.60
2018-12-03T16:04:06.671Z,11.60
2018-12-03T16:06:34.096Z,11.70
2018-12-03T16:09:01.613Z,11.80
2018-12-03T16:11:29.050Z,11.90
2018-12-03T16:13:56.438Z,11.80
2018-12-03T16:16:23.857Z,11.90
2018-12-03T16:18:51.333Z,11.90
2018-12-03T16:21:18.778Z,11.90
2018-12-03T16:23:46.352Z,11.80
2018-12-03T16:26:13.786Z,12.00
2018-12-03T16:28:41.328Z,12.00
2018-12-03T16:31:09.416Z,12.00
2018-12-03T16:33:36.869Z,12.00
2018-12-03T16:36:04.416Z,11.90
2018-12-03T16:38:31.902Z,11.90
2018-12-03T16:40:59.358Z,11.90
2018-12-03T16:43:26.899Z,11.90
2018-12-03T16:45:54.250Z,11.90
2018-12-03T16:48:21.641Z,11.90
2018-12-03T16:50:48.951Z,11.90
2018-12-03T16:53:16.982Z,11.80
2018-12-03T16:55:44.421Z,11.90
2018-12-03T16:58:11.981Z,12.00
2018-12-03T17:00:39.407Z,11.90
2018-12-03T17:03:07.638Z,11.90
2018-12-03T17:05:35.160Z,11.80
2018-12-03T17:08:03.229Z,11.90
2018-12-03T17:10:30.693Z,11.90
2018-12-03T17:12:58.308Z,12.00
2018-12-03T17:15:25.814Z,11.90
2018-12-03T17:17:53.186Z,11.90
2018-12-03T17:20:22.662Z,11.90
2018-12-03T17:22:57.978Z,11.90
2018-12-03T17:25:26.194Z,12.00
2018-12-03T17:27:53.831Z,12.10
2018-12-03T17:30:21.187Z,12.10
2018-12-03T17:32:48.717Z,12.10
2018-12-03T17:35:16.093Z,12.10
2018-12-03T17:37:43.544Z,12.10
2018-12-03T17:40:50.685Z,12.10
2018-12-03T17:43:18.179Z,12.10
2018-12-03T17:45:46.816Z,12.10
2018-12-03T17:48:14.743Z,12.10
2018-12-03T17:50:42.215Z,12.00
2018-12-03T17:53:09.774Z,12.00
2018-12-03T17:55:37.119Z,12.00
2018-12-03T17:58:04.793Z,12.10
2018-12-03T18:00:32.950Z,12.10
2018-12-03T18:03:00.302Z,12.10
2018-12-03T18:05:28.065Z,12.20
2018-12-03T18:07:55.630Z,12.20
2018-12-03T18:10:23.589Z,12.10
2018-12-03T18:12:51.205Z,12.00
2018-12-03T18:15:18.797Z,12.10
2018-12-03T18:17:46.321Z,12.00
2018-12-03T18:20:14.203Z,12.00
2018-12-03T18:22:42.785Z,11.90
2018-12-03T18:25:10.889Z,11.70
2018-12-03T18:27:38.361Z,11.40
2018-12-03T18:30:06.603Z,11.20
2018-12-03T18:32:34.130Z,11.00
2018-12-03T18:35:01.552Z,10.90
2018-12-03T18:37:30.034Z,10.90
2018-12-03T18:39:57.413Z,10.90
2018-12-03T18:42:24.721Z,10.80
2018-12-03T18:44:52.828Z,10.80
2018-12-03T18:47:20.332Z,10.80
2018-12-03T18:49:49.410Z,10.80
2018-12-03T18:52:17.189Z,10.70
2018-12-03T18:54:44.565Z,10.60
2018-12-03T18:57:11.993Z,10.60
2018-12-03T18:59:40.124Z,10.50
2018-12-03T19:02:07.783Z,10.60
2018-12-03T19:04:36.422Z,10.60
2018-12-03T19:07:05.935Z,10.80
2018-12-03T19:09:34.285Z,10.90
2018-12-03T19:12:14.230Z,11.00
2018-12-03T19:14:41.854Z,11.10
2018-12-03T19:17:09.898Z,11.10
2018-12-03T19:19:37.257Z,11.00
2018-12-03T19:22:06.030Z,11.00
2018-12-03T19:24:34.165Z,11.00
2018-12-03T19:27:01.787Z,11.00
2018-12-03T19:29:38.633Z,11.10
2018-12-03T19:32:06.234Z,11.20
2018-12-03T19:34:34.297Z,11.20
2018-12-03T19:37:01.741Z,11.20
2018-12-03T19:39:29.478Z,11.20
2018-12-03T19:41:57.622Z,11.30
2018-12-03T19:44:24.857Z,11.30
2018-12-03T19:46:52.600Z,11.20
2018-12-03T19:49:19.956Z,11.10
2018-12-03T19:51:47.312Z,11.10
2018-12-03T19:54:22.540Z,11.20
2018-12-03T19:56:53.842Z,11.20
2018-12-03T19:59:22.753Z,11.20
2018-12-03T20:04:36.515Z,11.20
2018-12-03T20:07:09.221Z,11.40
2018-12-03T20:09:38.666Z,11.50
2018-12-03T20:12:09.942Z,11.50
2018-12-03T20:14:38.411Z,11.60
2018-12-03T20:17:22.535Z,11.70
2018-12-03T20:19:57.356Z,11.70
2018-12-03T20:22:27.536Z,11.90
2018-12-03T20:27:40.052Z,12.00
2018-12-03T20:30:29.046Z,11.90
2018-12-03T20:33:09.082Z,11.80
2018-12-03T20:36:00.271Z,11.50
2018-12-03T20:38:38.917Z,11.40
2018-12-03T20:41:13.543Z,11.40
2018-12-03T20:43:44.610Z,11.40
2018-12-03T20:47:24.993Z,11.20
2018-12-03T20:50:02.991Z,11.20
2018-12-03T20:52:35.756Z,10.90
2018-12-03T20:55:09.524Z,10.70
2018-12-03T20:57:38.764Z,10.60
2018-12-03T21:00:11.979Z,10.40
2018-12-03T21:02:44.817Z,10.40
2018-12-03T21:05:12.254Z,10.40
2018-12-03T21:07:51.643Z,10.50
2018-12-03T21:10:19.057Z,10.40
2018-12-03T21:12:49.092Z,10.40
2018-12-03T21:15:16.817Z,10.40
2018-12-03T21:17:49.034Z,10.50
2018-12-03T21:20:23.726Z,10.40
2018-12-03T21:22:58.317Z,10.40
2018-12-03T21:25:25.803Z,10.50
2018-12-03T21:27:56.537Z,10.50
2018-12-03T21:30:29.136Z,10.50
2018-12-03T21:33:03.959Z,10.60
2018-12-03T21:35:34.700Z,10.70
2018-12-03T21:38:06.186Z,10.70
2018-12-03T21:40:35.361Z,10.80
2018-12-03T21:43:04.319Z,10.80
2018-12-03T21:48:15.261Z,10.90
2018-12-03T21:50:43.409Z,10.90
2018-12-03T21:53:10.846Z,10.80
2018-12-03T21:55:39.532Z,10.80
2018-12-03T21:58:12.403Z,10.80
2018-12-03T22:00:40.767Z,10.90
2018-12-03T22:03:10.761Z,10.90
2018-12-03T22:08:22.366Z,10.90
2018-12-03T22:10:51.791Z,10.90
2018-12-03T22:13:19.456Z,10.80
2018-12-03T22:15:46.895Z,10.80
2018-12-03T22:18:16.615Z,10.80
2018-12-03T22:20:44.599Z,10.90
2018-12-03T22:23:11.944Z,10.80
2018-12-03T22:25:39.374Z,10.70
2018-12-03T22:28:06.770Z,10.60
2018-12-03T22:30:34.105Z,10.60
2018-12-03T22:33:01.451Z,10.60
2018-12-03T22:35:28.918Z,10.60
2018-12-03T22:37:59.346Z,10.60
2018-12-03T22:40:27.007Z,10.60
2018-12-03T22:42:54.360Z,10.60
2018-12-03T22:45:21.826Z,10.50
2018-12-03T22:47:49.142Z,10.50
2018-12-03T22:50:17.114Z,10.50
2018-12-03T22:52:44.686Z,10.40
2018-12-03T22:55:12.173Z,10.40
2018-12-03T22:57:39.510Z,10.20
2018-12-03T23:00:12.343Z,10.00
2018-12-03T23:02:39.611Z,9.90
2018-12-03T23:05:08.786Z,9.60
2018-12-03T23:07:38.009Z,9.40
2018-12-03T23:10:05.582Z,9.30
2018-12-03T23:12:32.886Z,9.20
2018-12-03T23:15:00.812Z,9.20
2018-12-03T23:17:28.755Z,9.10
2018-12-03T23:19:56.086Z,9.00
2018-12-03T23:22:23.570Z,8.90
2018-12-03T23:24:50.893Z,8.90
2018-12-03T23:27:18.363Z,8.80
2018-12-03T23:29:45.694Z,8.80
2018-12-03T23:32:13.160Z,8.70
2018-12-03T23:34:40.720Z,8.70
2018-12-03T23:37:08.097Z,8.70
2018-12-03T23:39:35.432Z,8.80
2018-12-03T23:42:02.897Z,8.80
2018-12-03T23:44:30.229Z,8.80
2018-12-03T23:46:57.638Z,8.90
2018-12-03T23:49:24.910Z,8.90
2018-12-03T23:51:52.386Z,8.90
2018-12-03T23:54:20.931Z,9.00
2018-12-03T23:56:48.360Z,9.00
2018-12-03T23:59:15.806Z,9.00
